Funchalense 5 — CSKN — position and weather

sailwx.info

Track history (hours):
 
Tides and Currents Weather Stations Pressure Air Temp Water Temp Dewpoint Dewpoint Depression Visibility Wind Speed Wind Dir Waves Ship Positions

Funchalense 5

Last reported at 2017-May-21 03:24 UTC. Time now 2017-May-23 17:03 UTC.
Position N 37°24' W 010°55'.

Length 127 m; draft 7.7 m.

Type: Ship. MMSI: 255804250.

Date/timePositionNaut miles runAvg speedWind from/ knotsBaromVisibWave heightAir tempDewpointWater temp
2017-May-21 03:24N 37°24' W 010°55'614.8
2017-May-21 03:00N 37°28' W 010°50'714.7
2017-May-21 02:30N 37°34' W 010°43'714.9
2017-May-21 02:00N 37°39' W 010°37'714.9
2017-May-21 01:30N 37°45' W 010°30'814.9
2017-May-21 00:58N 37°51' W 010°24'714.5
2017-May-21 00:30N 37°55' W 010°18'714.7
2017-May-21 00:00N 38°00' W 010°11'815.2
2017-May-20 23:30N 38°05' W 010°04'714.8
2017-May-20 23:00N 38°10' W 009°57'714.8
2017-May-20 22:30N 38°15' W 009°50'815.0
2017-May-20 22:00N 38°20' W 009°43'815.2
2017-May-20 21:30N 38°26' W 009°36'714.8
2017-May-20 21:00N 38°32' W 009°30'815.0
2017-May-20 20:30N 38°37' W 009°23'713.7
2017-May-20 20:00N 38°41' W 009°16'611.2
2017-May-20 19:30N 38°42' W 009°09'2 3.1
2017-May-20 18:48N 38°43' W 009°07'0 0.1
2017-May-20 17:12N 38°43' W 009°07'0 0.0
2017-May-20 16:54N 38°43' W 009°07'0 0.0
2017-May-20 16:29N 38°43' W 009°07'0 0.0
2017-May-20 15:59N 38°43' W 009°07'0 0.0
2017-May-20 15:29N 38°43' W 009°07'0 0.0
2017-May-20 14:56N 38°43' W 009°07'0 0.0
2017-May-20 14:16N 38°43' W 009°07'0 0.0
2017-May-20 13:25N 38°43' W 009°07'0 0.0
2017-May-20 12:58N 38°43' W 009°07'0 0.0
2017-May-20 12:25N 38°43' W 009°07'0 0.0
2017-May-20 12:00N 38°43' W 009°07'0 0.0
2017-May-20 11:30N 38°43' W 009°07'0 0.0
2017-May-20 11:00N 38°43' W 009°07'0 0.0
2017-May-20 10:30N 38°43' W 009°07'0 0.0
2017-May-20 10:00N 38°43' W 009°07'0 0.0
2017-May-20 09:29N 38°43' W 009°07'0 0.0
2017-May-20 08:59N 38°43' W 009°07'0 0.0
2017-May-20 08:29N 38°43' W 009°07'0 0.0
2017-May-20 07:59N 38°43' W 009°07'0 0.0
2017-May-20 07:29N 38°43' W 009°07'0 0.2
2017-May-20 06:59N 38°43' W 009°07'1 3.1
2017-May-20 06:30N 38°42' W 009°08'510.1
2017-May-20 05:59N 38°41' W 009°15'714.2
2017-May-20 05:31N 38°38' W 009°22'714.7
2017-May-20 05:01N 38°38' W 009°31'815.9
2017-May-20 04:31N 38°39' W 009°41'815.5
2017-May-20 04:00N 38°47' W 009°43'815.9
2017-May-20 03:30N 38°55' W 009°45'816.1
2017-May-20 03:00N 39°03' W 009°45'816.4
2017-May-20 02:30N 39°11' W 009°45'816.6
2017-May-20 02:00N 39°19' W 009°45'  
2017-May-17 19:52N 38°01' W 011°44'513.8
2017-May-17 19:30N 37°57' W 011°48'9414.8
2017-May-17 13:09N 36°42' W 012°58'1314.0
2017-May-17 12:13N 36°31' W 013°08'3314.5
2017-May-17 09:55N 36°04' W 013°32'614.6
2017-May-17 09:30N 35°59' W 013°36'1614.7
2017-May-17 08:26N 35°47' W 013°48'614.7
2017-May-17 08:00N 35°42' W 013°52'814.9
2017-May-17 07:30N 35°35' W 013°58'714.9
2017-May-17 07:00N 35°30' W 014°03'714.7
2017-May-17 06:30N 35°24' W 014°09'714.8
2017-May-17 06:00N 35°18' W 014°14'715.0
2017-May-17 05:30N 35°12' W 014°19'715.0
2017-May-17 05:00N 35°06' W 014°25'714.9
2017-May-17 04:30N 34°60' W 014°30'815.1
2017-May-17 04:00N 34°53' W 014°35'714.8
2017-May-17 03:30N 34°47' W 014°41'714.7
2017-May-17 03:00N 34°41' W 014°45'714.6
2017-May-17 02:30N 34°35' W 014°50'11815.1
2017-May-16 18:45N 33°01' W 016°15'414.5
2017-May-16 18:29N 32°59' W 016°19'  
2017-May-14 05:42N 38°10' W 009°58'414.2
2017-May-14 05:25N 38°13' W 009°54'614.6
2017-May-14 05:00N 38°17' W 009°49'714.7
2017-May-14 04:30N 38°22' W 009°42'713.8
2017-May-14 04:00N 38°27' W 009°36'611.8
2017-May-14 03:30N 38°31' W 009°31'611.4
2017-May-14 03:01N 38°35' W 009°25'510.1
2017-May-14 02:31N 38°39' W 009°21'610.7
2017-May-14 02:00N 38°41' W 009°14'5 9.4
2017-May-14 01:30N 38°42' W 009°09'2 0.4
2017-May-13 21:04N 38°43' W 009°07'0 0.0
2017-May-13 20:55N 38°43' W 009°07'0 0.0
2017-May-13 20:25N 38°43' W 009°07'0 0.0
2017-May-13 19:52N 38°43' W 009°07'0 0.0
2017-May-13 19:31N 38°43' W 009°07'0 0.0
2017-May-13 19:00N 38°43' W 009°07'0 0.0
2017-May-13 18:30N 38°43' W 009°07'0 0.0
2017-May-13 17:42N 38°43' W 009°07'0 0.0
2017-May-13 17:18N 38°43' W 009°07'0 0.0
2017-May-13 16:56N 38°43' W 009°07'0 0.0
2017-May-13 16:29N 38°43' W 009°07'0 0.0
2017-May-13 15:59N 38°43' W 009°07'0 0.0
2017-May-13 12:00N 38°43' W 009°07'0 0.0
2017-May-13 11:10N 38°43' W 009°07'0 0.7
2017-May-13 11:01N 38°43' W 009°07'10 8.2
2017-May-13 09:45N 38°40' W 009°19'2 9.9
2017-May-13 09:30N 38°38' W 009°22'510.8
2017-May-13 09:00N 38°35' W 009°27'4 8.8
2017-May-13 08:30N 38°33' W 009°32'2 3.2
2017-May-13 08:00N 38°31' W 009°34'0 1.0
2017-May-13 07:30N 38°31' W 009°34'0 1.0
2017-May-13 07:00N 38°30' W 009°34'0 0.8
2017-May-13 06:30N 38°30' W 009°34'2 3.2
2017-May-13 06:00N 38°29' W 009°35'0 0.4
2017-May-13 05:30N 38°29' W 009°35'0 0.6
2017-May-13 05:00N 38°29' W 009°35'0 0.5
2017-May-13 04:30N 38°29' W 009°35'611.9
2017-May-13 04:00N 38°35' W 009°35'510.5
2017-May-13 03:30N 38°38' W 009°40'612.4
2017-May-13 03:00N 38°44' W 009°43'713.3
2017-May-13 02:30N 38°50' W 009°44'713.3
2017-May-13 02:00N 38°57' W 009°44'713.1
2017-May-13 01:30N 39°04' W 009°44'613.0
2017-May-13 01:00N 39°10' W 009°44'713.1
2017-May-13 00:30N 39°17' W 009°44'713.5
2017-May-12 23:59N 39°24' W 009°45'  
Track history (hours):
 
Tides and Currents Weather Stations Pressure Air Temp Water Temp Dewpoint Dewpoint Depression Visibility Wind Speed Wind Dir Waves Ship Positions

Funchalense 5

Last reported at 2017-May-21 03:24 UTC. Time now 2017-May-23 17:03 UTC.
Position N 37°24' W 010°55'.

Length 127 m; draft 7.7 m.

Type: Ship. MMSI: 255804250.

Date/timePositionNaut miles runAvg speedWind from/ knotsBaromVisibWave heightAir tempDewpointWater temp
2017-May-21 03:24N 37°24' W 010°55'614.8
2017-May-21 03:00N 37°28' W 010°50'714.7
2017-May-21 02:30N 37°34' W 010°43'714.9
2017-May-21 02:00N 37°39' W 010°37'714.9
2017-May-21 01:30N 37°45' W 010°30'814.9
2017-May-21 00:58N 37°51' W 010°24'714.5
2017-May-21 00:30N 37°55' W 010°18'714.7
2017-May-21 00:00N 38°00' W 010°11'815.2
2017-May-20 23:30N 38°05' W 010°04'714.8
2017-May-20 23:00N 38°10' W 009°57'714.8
2017-May-20 22:30N 38°15' W 009°50'815.0
2017-May-20 22:00N 38°20' W 009°43'815.2
2017-May-20 21:30N 38°26' W 009°36'714.8
2017-May-20 21:00N 38°32' W 009°30'815.0
2017-May-20 20:30N 38°37' W 009°23'713.7
2017-May-20 20:00N 38°41' W 009°16'611.2
2017-May-20 19:30N 38°42' W 009°09'2 3.1
2017-May-20 18:48N 38°43' W 009°07'0 0.1
2017-May-20 17:12N 38°43' W 009°07'0 0.0
2017-May-20 16:54N 38°43' W 009°07'0 0.0
2017-May-20 16:29N 38°43' W 009°07'0 0.0
2017-May-20 15:59N 38°43' W 009°07'0 0.0
2017-May-20 15:29N 38°43' W 009°07'0 0.0
2017-May-20 14:56N 38°43' W 009°07'0 0.0
2017-May-20 14:16N 38°43' W 009°07'0 0.0
2017-May-20 13:25N 38°43' W 009°07'0 0.0
2017-May-20 12:58N 38°43' W 009°07'0 0.0
2017-May-20 12:25N 38°43' W 009°07'0 0.0
2017-May-20 12:00N 38°43' W 009°07'0 0.0
2017-May-20 11:30N 38°43' W 009°07'0 0.0
2017-May-20 11:00N 38°43' W 009°07'0 0.0
2017-May-20 10:30N 38°43' W 009°07'0 0.0
2017-May-20 10:00N 38°43' W 009°07'0 0.0
2017-May-20 09:29N 38°43' W 009°07'0 0.0
2017-May-20 08:59N 38°43' W 009°07'0 0.0
2017-May-20 08:29N 38°43' W 009°07'0 0.0
2017-May-20 07:59N 38°43' W 009°07'0 0.0
2017-May-20 07:29N 38°43' W 009°07'0 0.2
2017-May-20 06:59N 38°43' W 009°07'1 3.1
2017-May-20 06:30N 38°42' W 009°08'510.1
2017-May-20 05:59N 38°41' W 009°15'714.2
2017-May-20 05:31N 38°38' W 009°22'714.7
2017-May-20 05:01N 38°38' W 009°31'815.9
2017-May-20 04:31N 38°39' W 009°41'815.5
2017-May-20 04:00N 38°47' W 009°43'815.9
2017-May-20 03:30N 38°55' W 009°45'816.1
2017-May-20 03:00N 39°03' W 009°45'816.4
2017-May-20 02:30N 39°11' W 009°45'816.6
2017-May-20 02:00N 39°19' W 009°45'  
2017-May-17 19:52N 38°01' W 011°44'513.8
2017-May-17 19:30N 37°57' W 011°48'9414.8
2017-May-17 13:09N 36°42' W 012°58'1314.0
2017-May-17 12:13N 36°31' W 013°08'3314.5
2017-May-17 09:55N 36°04' W 013°32'614.6
2017-May-17 09:30N 35°59' W 013°36'1614.7
2017-May-17 08:26N 35°47' W 013°48'614.7
2017-May-17 08:00N 35°42' W 013°52'814.9
2017-May-17 07:30N 35°35' W 013°58'714.9
2017-May-17 07:00N 35°30' W 014°03'714.7
2017-May-17 06:30N 35°24' W 014°09'714.8
2017-May-17 06:00N 35°18' W 014°14'715.0
2017-May-17 05:30N 35°12' W 014°19'715.0
2017-May-17 05:00N 35°06' W 014°25'714.9
2017-May-17 04:30N 34°60' W 014°30'815.1
2017-May-17 04:00N 34°53' W 014°35'714.8
2017-May-17 03:30N 34°47' W 014°41'714.7
2017-May-17 03:00N 34°41' W 014°45'714.6
2017-May-17 02:30N 34°35' W 014°50'11815.1
2017-May-16 18:45N 33°01' W 016°15'414.5
2017-May-16 18:29N 32°59' W 016°19'  
2017-May-14 05:42N 38°10' W 009°58'414.2
2017-May-14 05:25N 38°13' W 009°54'614.6
2017-May-14 05:00N 38°17' W 009°49'714.7
2017-May-14 04:30N 38°22' W 009°42'713.8
2017-May-14 04:00N 38°27' W 009°36'611.8
2017-May-14 03:30N 38°31' W 009°31'611.4
2017-May-14 03:01N 38°35' W 009°25'510.1
2017-May-14 02:31N 38°39' W 009°21'610.7
2017-May-14 02:00N 38°41' W 009°14'5 9.4
2017-May-14 01:30N 38°42' W 009°09'2 0.4
2017-May-13 21:04N 38°43' W 009°07'0 0.0
2017-May-13 20:55N 38°43' W 009°07'0 0.0
2017-May-13 20:25N 38°43' W 009°07'0 0.0
2017-May-13 19:52N 38°43' W 009°07'0 0.0
2017-May-13 19:31N 38°43' W 009°07'0 0.0
2017-May-13 19:00N 38°43' W 009°07'0 0.0
2017-May-13 18:30N 38°43' W 009°07'0 0.0
2017-May-13 17:42N 38°43' W 009°07'0 0.0
2017-May-13 17:18N 38°43' W 009°07'0 0.0
2017-May-13 16:56N 38°43' W 009°07'0 0.0
2017-May-13 16:29N 38°43' W 009°07'0 0.0
2017-May-13 15:59N 38°43' W 009°07'0 0.0
2017-May-13 12:00N 38°43' W 009°07'0 0.0
2017-May-13 11:10N 38°43' W 009°07'0 0.7
2017-May-13 11:01N 38°43' W 009°07'10 8.2
2017-May-13 09:45N 38°40' W 009°19'2 9.9
2017-May-13 09:30N 38°38' W 009°22'510.8
2017-May-13 09:00N 38°35' W 009°27'4 8.8
2017-May-13 08:30N 38°33' W 009°32'2 3.2
2017-May-13 08:00N 38°31' W 009°34'0 1.0
2017-May-13 07:30N 38°31' W 009°34'0 1.0
2017-May-13 07:00N 38°30' W 009°34'0 0.8
2017-May-13 06:30N 38°30' W 009°34'2 3.2
2017-May-13 06:00N 38°29' W 009°35'0 0.4
2017-May-13 05:30N 38°29' W 009°35'0 0.6
2017-May-13 05:00N 38°29' W 009°35'0 0.5
2017-May-13 04:30N 38°29' W 009°35'611.9
2017-May-13 04:00N 38°35' W 009°35'510.5
2017-May-13 03:30N 38°38' W 009°40'612.4
2017-May-13 03:00N 38°44' W 009°43'713.3
2017-May-13 02:30N 38°50' W 009°44'713.3
2017-May-13 02:00N 38°57' W 009°44'713.1
2017-May-13 01:30N 39°04' W 009°44'613.0
2017-May-13 01:00N 39°10' W 009°44'713.1
2017-May-13 00:30N 39°17' W 009°44'713.5
2017-May-12 23:59N 39°24' W 009°45'  

Dump ship's entire track history